createdAt,value
2022-08-26T00:02:28.205Z,97866.03
2022-08-26T00:05:37.179Z,97870.19
2022-08-26T00:08:46.840Z,97868.06
2022-08-26T00:12:00.587Z,97861.63
2022-08-26T00:15:12.110Z,97856.75
2022-08-26T00:18:22.162Z,97854.72
2022-08-26T00:21:28.787Z,97861.72
2022-08-26T00:24:37.802Z,97858.91
2022-08-26T00:27:46.857Z,97859.94
2022-08-26T00:30:53.248Z,97852.84
2022-08-26T00:34:02.269Z,97854.94
2022-08-26T00:37:13.420Z,97858.81
2022-08-26T00:40:27.717Z,97863.03
2022-08-26T00:43:47.443Z,97865.09
2022-08-26T00:47:02.018Z,97865.84
2022-08-26T00:50:21.176Z,97866.28
2022-08-26T00:53:41.485Z,97859.28
2022-08-26T00:56:54.356Z,97870.19
2022-08-26T01:00:13.565Z,97877.47
2022-08-26T01:03:26.693Z,97873.41
2022-08-26T01:10:11.971Z,97870.13
2022-08-26T01:13:20.635Z,97871.50
2022-08-26T01:16:38.595Z,97873.25
2022-08-26T01:19:50.249Z,97867.34
2022-08-26T01:23:03.232Z,97871.19
2022-08-26T01:26:19.670Z,97868.81
2022-08-26T01:29:28.508Z,97866.34
2022-08-26T01:32:38.994Z,97863.31
2022-08-26T01:35:45.671Z,97863.22
2022-08-26T01:38:54.623Z,97861.50
2022-08-26T01:42:02.967Z,97861.97
2022-08-26T01:45:14.120Z,97864.13
2022-08-26T01:48:42.920Z,97863.38
2022-08-26T01:51:51.710Z,97862.22
2022-08-26T01:55:07.866Z,97871.84
2022-08-26T01:58:29.259Z,97874.94
2022-08-26T02:01:33.353Z,97867.91
2022-08-26T02:04:51.213Z,97869.28
2022-08-26T02:08:07.287Z,97875.28
2022-08-26T02:11:14.619Z,97874.81
2022-08-26T02:14:26.736Z,97869.72
2022-08-26T02:17:39.897Z,97873.94
2022-08-26T02:20:45.343Z,97874.28
2022-08-26T02:23:56.162Z,97876.88
2022-08-26T02:27:06.047Z,97877.53
2022-08-26T02:30:17.191Z,97881.41
2022-08-26T02:33:25.707Z,97878.22
2022-08-26T02:36:34.666Z,97870.72
2022-08-26T02:39:43.146Z,97868.81
2022-08-26T02:42:53.138Z,97860.53
2022-08-26T02:46:04.181Z,97868.59
2022-08-26T02:49:11.548Z,97864.63
2022-08-26T02:52:18.247Z,97865.28
2022-08-26T02:55:27.258Z,97870.31
2022-08-26T02:58:35.081Z,97870.53
2022-08-26T03:01:41.610Z,97862.59
2022-08-26T03:04:58.080Z,97862.59
2022-08-26T03:08:08.240Z,97858.88
2022-08-26T03:11:17.024Z,97847.06
2022-08-26T03:14:25.848Z,97848.53
2022-08-26T03:17:33.248Z,97861.34
2022-08-26T03:20:47.600Z,97855.78
2022-08-26T03:23:58.934Z,97851.50
2022-08-26T03:27:08.583Z,97852.06
2022-08-26T03:30:36.407Z,97852.94
2022-08-26T03:33:43.486Z,97857.13
2022-08-26T03:36:52.926Z,97852.50
2022-08-26T03:40:02.157Z,97854.75
2022-08-26T03:43:15.161Z,97858.38
2022-08-26T03:46:23.534Z,97868.47
2022-08-26T03:49:35.796Z,97855.06
2022-08-26T03:52:44.054Z,97855.72
2022-08-26T03:55:52.044Z,97862.53
2022-08-26T03:58:58.527Z,97860.91
2022-08-26T04:02:11.317Z,97856.63
2022-08-26T04:05:19.239Z,97865.25
2022-08-26T04:08:32.099Z,97872.59
2022-08-26T04:11:42.618Z,97860.16
2022-08-26T04:15:02.103Z,97870.88
2022-08-26T04:18:36.913Z,97867.38
2022-08-26T04:21:48.996Z,97858.44
2022-08-26T04:24:56.846Z,97857.97
2022-08-26T04:28:04.241Z,97857.16
2022-08-26T04:31:17.576Z,97851.72
2022-08-26T04:34:28.723Z,97849.34
2022-08-26T04:37:36.761Z,97854.34
2022-08-26T04:40:47.126Z,97855.47
2022-08-26T04:43:57.200Z,97852.41
2022-08-26T04:47:03.630Z,97849.69
2022-08-26T04:50:12.686Z,97855.13
2022-08-26T04:53:21.101Z,97852.19
2022-08-26T04:56:33.541Z,97862.06
2022-08-26T04:59:56.266Z,97859.81
2022-08-26T05:03:06.299Z,97865.34
2022-08-26T05:06:19.245Z,97862.75
2022-08-26T05:09:30.588Z,97861.31
2022-08-26T05:12:40.481Z,97869.59
2022-08-26T05:15:48.918Z,97861.69
2022-08-26T05:19:02.646Z,97863.03
2022-08-26T05:22:20.385Z,97866.47
2022-08-26T05:25:30.252Z,97862.50
2022-08-26T05:28:58.098Z,97866.56
2022-08-26T05:32:16.059Z,97863.72
2022-08-26T05:35:26.408Z,97868.94
2022-08-26T05:38:41.269Z,97871.88
2022-08-26T05:41:52.658Z,97868.72
2022-08-26T05:44:59.540Z,97877.34
2022-08-26T05:48:11.030Z,97873.69
2022-08-26T05:51:20.136Z,97875.84
2022-08-26T05:54:34.709Z,97880.00
2022-08-26T05:57:43.534Z,97883.28
2022-08-26T06:00:50.925Z,97886.09
2022-08-26T06:04:04.731Z,97892.34
2022-08-26T06:07:12.494Z,97889.19
2022-08-26T06:10:33.373Z,97891.56
2022-08-26T06:13:40.866Z,97890.53
2022-08-26T06:16:51.138Z,97891.44
2022-08-26T06:20:02.038Z,97892.78
2022-08-26T06:23:21.003Z,97904.47
2022-08-26T06:26:30.438Z,97900.59
2022-08-26T06:29:39.329Z,97900.03
2022-08-26T06:32:46.818Z,97902.94
2022-08-26T06:35:54.570Z,97905.53
2022-08-26T06:39:08.621Z,97909.38
2022-08-26T06:42:18.774Z,97905.97
2022-08-26T06:45:26.987Z,97908.16
2022-08-26T06:48:33.567Z,97910.00
2022-08-26T06:51:40.982Z,97910.00
2022-08-26T06:54:46.918Z,97914.06
2022-08-26T06:57:55.444Z,97903.38
2022-08-26T07:01:11.421Z,97902.44
2022-08-26T07:04:20.250Z,97909.00
2022-08-26T07:07:30.493Z,97914.09
2022-08-26T07:10:40.988Z,97904.72
2022-08-26T07:13:50.532Z,97910.69
2022-08-26T07:16:58.270Z,97906.97
2022-08-26T07:20:07.980Z,97919.31
2022-08-26T07:23:17.318Z,97914.28
2022-08-26T07:26:28.553Z,97917.47
2022-08-26T07:29:52.151Z,97913.09
2022-08-26T07:33:15.035Z,97915.00
2022-08-26T07:36:51.918Z,97918.88
2022-08-26T07:39:58.993Z,97925.16
2022-08-26T07:43:13.027Z,97924.84
2022-08-26T07:46:29.897Z,97929.56
2022-08-26T07:49:42.090Z,97924.97
2022-08-26T07:52:52.964Z,97924.72
2022-08-26T07:56:03.613Z,97925.66
2022-08-26T07:59:14.084Z,97930.06
2022-08-26T08:02:28.832Z,97920.91
2022-08-26T08:05:35.625Z,97925.03
2022-08-26T08:08:42.530Z,97920.25
2022-08-26T08:11:51.297Z,97923.16
2022-08-26T08:14:58.038Z,97926.94
2022-08-26T08:18:15.728Z,97921.28
2022-08-26T08:21:24.319Z,97915.66
2022-08-26T08:24:30.949Z,97920.44
2022-08-26T08:27:37.993Z,97911.88
2022-08-26T08:30:45.033Z,97916.13
2022-08-26T08:33:55.641Z,97895.25
2022-08-26T08:37:03.042Z,97905.25
2022-08-26T08:40:14.823Z,97910.94
2022-08-26T08:43:37.690Z,97904.41
2022-08-26T08:46:48.097Z,97907.97
2022-08-26T08:50:02.764Z,97898.94
2022-08-26T08:53:15.902Z,97902.50
2022-08-26T08:56:28.175Z,97895.00
2022-08-26T08:59:38.393Z,97885.13
2022-08-26T09:02:52.106Z,97891.84
2022-08-26T09:06:04.205Z,97886.66
2022-08-26T09:09:27.615Z,97891.66
2022-08-26T09:12:46.637Z,97891.19
2022-08-26T09:16:26.213Z,97882.03
2022-08-26T09:19:58.373Z,97890.44
2022-08-26T09:23:57.377Z,97877.53
2022-08-26T09:27:44.185Z,97883.88
2022-08-26T09:31:21.075Z,97883.91
2022-08-26T09:34:56.862Z,97876.81
2022-08-26T09:38:44.802Z,97873.63
2022-08-26T09:49:25.893Z,97859.03
2022-08-26T09:56:53.628Z,97842.81
2022-08-26T10:04:15.107Z,97826.63
2022-08-26T10:07:40.898Z,97833.13
2022-08-26T10:10:53.332Z,97824.94
2022-08-26T10:14:11.868Z,97821.94
2022-08-26T10:17:25.948Z,97813.00
2022-08-26T10:20:38.110Z,97817.88
2022-08-26T10:23:50.344Z,97813.28
2022-08-26T10:27:05.373Z,97802.50
2022-08-26T10:30:16.254Z,97806.22
2022-08-26T10:33:24.462Z,97798.13
2022-08-26T10:40:25.395Z,97803.78
2022-08-26T10:43:38.732Z,97801.06
2022-08-26T10:46:55.497Z,97799.97
2022-08-26T10:50:04.201Z,97794.84
2022-08-26T10:53:19.686Z,97794.19
2022-08-26T10:56:47.085Z,97793.09
2022-08-26T11:00:02.016Z,97787.63
2022-08-26T11:03:43.750Z,97773.47
2022-08-26T11:07:23.384Z,97758.63
2022-08-26T11:14:58.438Z,97756.91
2022-08-26T11:18:09.024Z,97755.91
2022-08-26T11:21:53.109Z,97761.03
2022-08-26T11:29:13.314Z,97758.13
2022-08-26T11:32:56.228Z,97751.38
2022-08-26T11:36:12.416Z,97746.84
2022-08-26T11:39:46.820Z,97741.75
2022-08-26T11:43:30.278Z,97737.50
2022-08-26T11:47:14.346Z,97724.78
2022-08-26T11:50:35.540Z,97717.69
2022-08-26T11:54:02.124Z,97721.56
2022-08-26T11:57:12.401Z,97718.16
2022-08-26T12:00:23.793Z,97728.31
2022-08-26T12:03:52.205Z,97726.22
2022-08-26T12:07:03.998Z,97732.59
2022-08-26T12:10:29.566Z,97743.97
2022-08-26T12:13:36.515Z,97730.16
2022-08-26T12:16:44.081Z,97715.53
2022-08-26T12:19:53.673Z,97719.00
2022-08-26T12:23:01.811Z,97715.13
2022-08-26T12:26:11.175Z,97714.88
2022-08-26T12:29:27.552Z,97724.56
2022-08-26T12:32:34.313Z,97705.91
2022-08-26T12:35:48.469Z,97711.59
2022-08-26T12:38:58.717Z,97699.94
2022-08-26T12:42:08.655Z,97698.00
2022-08-26T12:45:16.741Z,97693.94
2022-08-26T12:48:30.299Z,97705.31
2022-08-26T12:51:43.173Z,97703.09
2022-08-26T12:55:01.679Z,97695.56
2022-08-26T12:58:28.087Z,97699.59
2022-08-26T13:01:48.829Z,97698.50
2022-08-26T13:05:04.042Z,97692.53
2022-08-26T13:08:35.970Z,97693.56
2022-08-26T13:12:22.496Z,97681.53
2022-08-26T13:19:10.245Z,97682.06
2022-08-26T13:22:31.231Z,97679.75
2022-08-26T13:26:00.222Z,97672.28
2022-08-26T13:29:25.362Z,97677.09
2022-08-26T13:33:04.502Z,97680.53
2022-08-26T13:36:31.963Z,97673.31
2022-08-26T13:40:21.624Z,97678.19
2022-08-26T13:43:59.441Z,97672.94
2022-08-26T13:47:33.286Z,97677.66
2022-08-26T13:51:34.839Z,97676.53
2022-08-26T13:55:33.246Z,97681.34
2022-08-26T13:59:05.621Z,97679.84
2022-08-26T14:09:52.406Z,97659.94
2022-08-26T14:13:32.730Z,97665.63
2022-08-26T14:20:33.618Z,97635.84
2022-08-26T14:23:41.101Z,97636.09
2022-08-26T14:27:00.974Z,97638.69
2022-08-26T14:30:09.236Z,97646.09
2022-08-26T14:33:33.487Z,97633.16
2022-08-26T14:37:07.683Z,97639.13
2022-08-26T14:40:20.825Z,97637.34
2022-08-26T14:43:54.109Z,97625.44
2022-08-26T14:47:12.639Z,97628.91
2022-08-26T14:50:28.170Z,97633.97
2022-08-26T14:54:14.484Z,97637.09
2022-08-26T15:01:32.980Z,97632.91
2022-08-26T15:04:40.396Z,97627.66
2022-08-26T15:07:49.276Z,97632.88
2022-08-26T15:10:55.752Z,97629.97
2022-08-26T15:14:01.849Z,97632.03
2022-08-26T15:17:08.696Z,97630.28
2022-08-26T15:20:15.989Z,97638.75
2022-08-26T15:23:23.533Z,97645.50
2022-08-26T15:26:33.417Z,97649.13
2022-08-26T15:29:40.434Z,97655.13
2022-08-26T15:32:50.169Z,97665.09
2022-08-26T15:35:58.603Z,97685.66
2022-08-26T15:39:11.101Z,97694.13
2022-08-26T15:42:18.143Z,97691.47
2022-08-26T15:45:26.250Z,97696.22
2022-08-26T15:48:42.193Z,97703.19
2022-08-26T15:51:57.795Z,97723.47
2022-08-26T15:55:17.414Z,97744.88
2022-08-26T15:58:28.875Z,97769.09
2022-08-26T16:01:41.209Z,97768.41
2022-08-26T16:04:49.054Z,97794.78
2022-08-26T16:07:56.956Z,97776.56
2022-08-26T16:11:11.227Z,97783.63
2022-08-26T16:14:20.756Z,97788.75
2022-08-26T16:17:30.901Z,97793.56
2022-08-26T16:20:39.214Z,97806.44
2022-08-26T16:23:47.327Z,97826.53
2022-08-26T16:26:58.599Z,97854.50
2022-08-26T16:30:08.458Z,97869.59
2022-08-26T16:33:21.578Z,97873.06
2022-08-26T16:36:35.828Z,97881.38
2022-08-26T16:39:45.043Z,97874.34
2022-08-26T16:42:56.092Z,97877.94
2022-08-26T16:46:02.602Z,97860.97
2022-08-26T16:49:09.022Z,97857.81
2022-08-26T16:52:16.515Z,97849.53
2022-08-26T16:55:26.199Z,97867.72
2022-08-26T16:58:35.294Z,97887.81
2022-08-26T17:01:44.911Z,97877.44
2022-08-26T17:04:52.333Z,97876.97
2022-08-26T17:08:00.769Z,97871.38
2022-08-26T17:11:07.610Z,97860.44
2022-08-26T17:14:16.258Z,97844.06
2022-08-26T17:17:24.722Z,97832.59
2022-08-26T17:20:33.434Z,97810.94
2022-08-26T17:23:39.967Z,97806.19
2022-08-26T17:26:53.539Z,97786.72
2022-08-26T17:30:04.387Z,97789.97
2022-08-26T17:33:13.135Z,97816.47
2022-08-26T17:36:20.095Z,97813.75
2022-08-26T17:39:28.412Z,97806.81
2022-08-26T17:42:35.196Z,97823.81
2022-08-26T17:45:50.470Z,97814.09
2022-08-26T17:49:01.009Z,97807.53
2022-08-26T17:52:13.624Z,97814.53
2022-08-26T17:55:23.302Z,97807.53
2022-08-26T17:58:30.692Z,97806.81
2022-08-26T18:01:49.238Z,97791.25
2022-08-26T18:04:56.534Z,97786.59
2022-08-26T18:08:08.358Z,97779.97
2022-08-26T18:11:19.625Z,97775.78
2022-08-26T18:14:27.115Z,97772.44
2022-08-26T18:17:36.147Z,97777.53
2022-08-26T18:20:46.269Z,97784.03
2022-08-26T18:23:58.894Z,97794.84
2022-08-26T18:27:08.006Z,97810.41
2022-08-26T18:30:16.900Z,97827.66
2022-08-26T18:33:29.083Z,97842.66
2022-08-26T18:36:40.963Z,97860.16
2022-08-26T18:39:48.004Z,97889.47
2022-08-26T18:42:56.817Z,97904.56
2022-08-26T18:46:07.526Z,97925.50
2022-08-26T18:49:16.296Z,97925.84
2022-08-26T18:52:23.483Z,97924.72
2022-08-26T18:55:31.061Z,97927.19
2022-08-26T18:58:38.124Z,97926.06
2022-08-26T19:01:46.393Z,97931.19
2022-08-26T19:05:02.105Z,97920.91
2022-08-26T19:08:09.007Z,97917.91
2022-08-26T19:11:15.728Z,97912.91
2022-08-26T19:14:23.042Z,97905.84
2022-08-26T19:17:30.620Z,97913.72
2022-08-26T19:20:46.533Z,97909.72
2022-08-26T19:23:55.377Z,97922.66
2022-08-26T19:27:04.061Z,97921.53
2022-08-26T19:30:13.396Z,97919.84
2022-08-26T19:33:22.333Z,97922.91
2022-08-26T19:36:31.771Z,97919.75
2022-08-26T19:39:39.879Z,97917.38
2022-08-26T19:42:49.220Z,97917.59
2022-08-26T19:45:58.489Z,97918.66
2022-08-26T19:49:05.797Z,97924.00
2022-08-26T19:52:16.831Z,97922.03
2022-08-26T19:55:25.040Z,97925.56
2022-08-26T19:58:33.308Z,97927.41
2022-08-26T20:01:42.286Z,97930.47
2022-08-26T20:04:54.840Z,97930.72
2022-08-26T20:08:09.173Z,97944.66
2022-08-26T20:11:35.415Z,97938.44
2022-08-26T20:14:42.690Z,97934.47
2022-08-26T20:18:00.425Z,97932.88
2022-08-26T20:21:25.119Z,97932.78
2022-08-26T20:24:35.586Z,97924.94
2022-08-26T20:27:44.654Z,97921.53
2022-08-26T20:30:52.824Z,97915.31
2022-08-26T20:34:01.014Z,97921.06
2022-08-26T20:37:09.116Z,97929.25
2022-08-26T20:40:18.953Z,97924.84
2022-08-26T20:43:25.066Z,97927.66
2022-08-26T20:46:32.154Z,97930.66
2022-08-26T20:49:40.382Z,97924.03
2022-08-26T20:52:48.662Z,97929.94
2022-08-26T20:55:57.004Z,97922.47
2022-08-26T20:59:05.851Z,97925.66
2022-08-26T21:02:11.578Z,97933.13
2022-08-26T21:05:32.566Z,97938.91
2022-08-26T21:08:43.454Z,97948.22
2022-08-26T21:11:53.333Z,97950.28
2022-08-26T21:14:59.631Z,97956.50
2022-08-26T21:18:07.157Z,97949.91
2022-08-26T21:21:13.853Z,97954.47
2022-08-26T21:24:21.747Z,97949.25
2022-08-26T21:27:29.771Z,97957.75
2022-08-26T21:30:35.966Z,97958.22
2022-08-26T21:33:43.877Z,97952.31
2022-08-26T21:36:53.078Z,97957.44
2022-08-26T21:40:00.431Z,97950.03
2022-08-26T21:43:07.762Z,97949.38
2022-08-26T21:46:16.285Z,97957.44
2022-08-26T21:49:20.828Z,97955.84
2022-08-26T21:52:27.874Z,97959.47
2022-08-26T21:55:39.078Z,97967.28
2022-08-26T21:58:47.081Z,97957.44
2022-08-26T22:01:56.455Z,97958.81
2022-08-26T22:05:03.840Z,97956.84
2022-08-26T22:08:09.946Z,97958.91
2022-08-26T22:11:15.536Z,97953.81
2022-08-26T22:14:30.846Z,97948.81
2022-08-26T22:17:39.791Z,97953.09
2022-08-26T22:20:53.073Z,97953.47
2022-08-26T22:24:01.073Z,97950.03
2022-08-26T22:27:14.677Z,97949.38
2022-08-26T22:30:27.871Z,97957.44
2022-08-26T22:33:34.901Z,97971.81
2022-08-26T22:36:53.353Z,97974.69
2022-08-26T22:40:07.728Z,97972.06
2022-08-26T22:43:24.747Z,97983.72
2022-08-26T22:46:35.101Z,97977.63
2022-08-26T22:49:42.145Z,97984.19
2022-08-26T22:52:47.382Z,97984.63
2022-08-26T22:55:51.982Z,97987.16
2022-08-26T22:59:02.119Z,97986.81
2022-08-26T23:02:14.247Z,97981.81
2022-08-26T23:05:19.551Z,97982.59
2022-08-26T23:08:31.548Z,97984.63
2022-08-26T23:11:42.364Z,97987.91
2022-08-26T23:14:52.278Z,97988.59
2022-08-26T23:17:59.826Z,97993.25
2022-08-26T23:21:14.787Z,97993.59
2022-08-26T23:24:22.787Z,97981.56
2022-08-26T23:27:28.257Z,97977.59
2022-08-26T23:30:38.847Z,97973.72
2022-08-26T23:34:07.258Z,97966.00
2022-08-26T23:37:13.365Z,97961.00
2022-08-26T23:40:22.087Z,97966.56
2022-08-26T23:43:27.220Z,97957.56
2022-08-26T23:46:31.366Z,97953.72
2022-08-26T23:49:40.348Z,97949.84
2022-08-26T23:53:03.331Z,97950.66
2022-08-26T23:56:15.368Z,97952.56
2022-08-26T23:59:24.599Z,97950.19
